createdAt,value
2019-03-21T00:01:52.364Z,18.77
2019-03-21T00:04:21.701Z,18.40
2019-03-21T00:06:51.037Z,18.52
2019-03-21T00:09:20.341Z,18.80
2019-03-21T00:12:20.894Z,18.70
2019-03-21T00:15:19.499Z,20.37
2019-03-21T00:17:56.295Z,19.35
2019-03-21T00:20:25.627Z,18.92
2019-03-21T00:22:55.002Z,19.60
2019-03-21T00:25:24.669Z,18.10
2019-03-21T00:27:53.985Z,19.70
2019-03-21T00:30:23.593Z,19.77
2019-03-21T00:32:55.043Z,20.08
2019-03-21T00:35:24.422Z,19.17
2019-03-21T00:37:53.731Z,19.70
2019-03-21T00:40:25.896Z,18.52
2019-03-21T00:42:55.240Z,19.25
2019-03-21T00:45:24.517Z,19.15
2019-03-21T00:47:53.812Z,19.05
2019-03-21T00:50:24.157Z,19.20
2019-03-21T00:52:54.138Z,19.35
2019-03-21T00:55:23.766Z,19.40
2019-03-21T00:57:53.019Z,19.50
2019-03-21T01:00:25.263Z,20.62
2019-03-21T01:02:54.490Z,20.43
2019-03-21T01:05:23.731Z,20.10
2019-03-21T01:07:52.962Z,20.57
2019-03-21T01:10:23.239Z,19.95
2019-03-21T01:12:52.471Z,21.30
2019-03-21T01:15:21.766Z,20.92
2019-03-21T01:17:51.016Z,21.07
2019-03-21T01:20:20.252Z,20.57
2019-03-21T01:22:49.505Z,20.50
2019-03-21T01:25:24.539Z,20.72
2019-03-21T01:27:53.830Z,20.60
2019-03-21T01:30:23.087Z,20.30
2019-03-21T01:32:52.316Z,20.88
2019-03-21T01:35:21.602Z,19.80
2019-03-21T01:37:50.883Z,20.10
2019-03-21T01:40:21.831Z,20.20
2019-03-21T01:42:51.126Z,21.52
2019-03-21T01:45:21.690Z,20.37
2019-03-21T01:47:51.681Z,21.20
2019-03-21T01:50:21.136Z,22.13
2019-03-21T01:52:50.389Z,20.30
2019-03-21T01:55:19.636Z,21.97
2019-03-21T01:57:49.149Z,20.95
2019-03-21T02:00:21.606Z,21.35
2019-03-21T02:02:52.038Z,20.20
2019-03-21T02:05:21.382Z,18.85
2019-03-21T02:07:50.633Z,20.95
2019-03-21T02:10:20.041Z,19.55
2019-03-21T02:12:49.283Z,19.52
2019-03-21T02:15:18.588Z,18.92
2019-03-21T02:17:47.904Z,18.40
2019-03-21T02:20:17.219Z,19.55
2019-03-21T02:22:46.517Z,19.17
2019-03-21T02:25:18.307Z,18.67
2019-03-21T02:27:47.566Z,18.55
2019-03-21T02:30:19.482Z,19.50
2019-03-21T02:32:50.373Z,19.65
2019-03-21T02:35:19.630Z,18.60
2019-03-21T02:37:49.005Z,19.30
2019-03-21T02:40:19.331Z,17.77
2019-03-21T02:42:48.589Z,18.87
2019-03-21T02:45:18.090Z,19.45
2019-03-21T02:47:47.499Z,19.37
2019-03-21T02:50:19.822Z,17.55
2019-03-21T02:52:49.173Z,17.87
2019-03-21T02:55:18.445Z,18.00
2019-03-21T02:57:47.698Z,18.37
2019-03-21T03:00:19.123Z,19.37
2019-03-21T03:02:48.997Z,18.07
2019-03-21T03:05:20.657Z,18.35
2019-03-21T03:07:49.986Z,18.62
2019-03-21T03:10:22.279Z,19.00
2019-03-21T03:12:51.566Z,18.98
2019-03-21T03:15:23.477Z,19.27
2019-03-21T03:17:52.669Z,19.95
2019-03-21T03:20:22.006Z,19.32
2019-03-21T03:22:51.392Z,19.10
2019-03-21T03:25:20.689Z,19.70
2019-03-21T03:27:50.766Z,19.40
2019-03-21T03:30:21.411Z,19.10
2019-03-21T03:32:50.794Z,19.77
2019-03-21T03:35:20.216Z,20.35
2019-03-21T03:37:49.653Z,18.67
2019-03-21T03:40:25.238Z,18.98
2019-03-21T03:42:54.526Z,19.37
2019-03-21T03:45:36.711Z,19.30
2019-03-21T03:47:57.208Z,19.55
2019-03-21T03:50:26.508Z,18.70
2019-03-21T03:52:55.819Z,18.85
2019-03-21T03:55:25.184Z,18.92
2019-03-21T03:57:55.417Z,18.37
2019-03-21T04:00:24.866Z,18.30
2019-03-21T04:02:54.517Z,20.43
2019-03-21T04:05:23.865Z,18.48
2019-03-21T04:07:53.224Z,19.95
2019-03-21T04:10:25.066Z,18.10
2019-03-21T04:12:54.373Z,18.85
2019-03-21T04:15:23.742Z,18.90
2019-03-21T04:17:52.991Z,19.27
2019-03-21T04:20:24.231Z,19.02
2019-03-21T04:22:53.523Z,19.37
2019-03-21T04:25:25.994Z,19.67
2019-03-21T04:27:55.330Z,23.77
2019-03-21T04:30:24.628Z,20.35
2019-03-21T04:32:53.895Z,20.40
2019-03-21T04:35:23.139Z,20.72
2019-03-21T04:37:52.507Z,19.85
2019-03-21T04:40:21.717Z,19.30
2019-03-21T04:42:50.951Z,20.55
2019-03-21T04:45:20.500Z,19.60
2019-03-21T04:47:49.768Z,19.20
2019-03-21T04:50:21.521Z,19.55
2019-03-21T04:52:50.772Z,19.42
2019-03-21T04:55:20.005Z,19.52
2019-03-21T04:57:49.256Z,19.57
2019-03-21T05:00:24.240Z,19.50
2019-03-21T05:02:55.011Z,19.40
2019-03-21T05:05:24.777Z,53.02
2019-03-21T05:07:54.135Z,20.95
2019-03-21T05:10:23.357Z,25.88
2019-03-21T05:12:52.654Z,19.10
2019-03-21T05:15:24.581Z,30.35
2019-03-21T05:17:55.110Z,21.57
2019-03-21T05:20:25.912Z,22.48
2019-03-21T05:22:55.247Z,23.85
2019-03-21T05:25:24.475Z,25.23
2019-03-21T05:27:53.707Z,24.63
2019-03-21T05:30:26.427Z,27.93
2019-03-21T05:32:55.798Z,27.45
2019-03-21T05:35:25.116Z,24.20
2019-03-21T05:37:54.374Z,22.05
2019-03-21T05:40:23.589Z,21.68
2019-03-21T05:42:56.987Z,21.35
2019-03-21T05:45:26.224Z,19.95
2019-03-21T05:47:55.455Z,21.30
2019-03-21T05:50:24.838Z,22.10
2019-03-21T05:52:54.131Z,20.65
2019-03-21T05:55:23.358Z,20.82
2019-03-21T05:57:52.587Z,21.20
2019-03-21T06:00:25.395Z,50.30
2019-03-21T06:02:54.749Z,28.40
2019-03-21T06:05:24.075Z,21.87
2019-03-21T06:08:03.112Z,22.40
2019-03-21T06:10:32.414Z,20.68
2019-03-21T06:13:01.715Z,20.72
2019-03-21T06:15:32.004Z,21.70
2019-03-21T06:18:49.409Z,23.92
2019-03-21T06:21:26.554Z,26.05
2019-03-21T06:24:33.525Z,20.57
2019-03-21T06:27:38.915Z,20.40
2019-03-21T06:30:10.357Z,20.17
2019-03-21T06:32:39.685Z,20.68
2019-03-21T06:35:28.078Z,20.02
2019-03-21T06:37:57.330Z,20.68
2019-03-21T06:40:26.656Z,20.85
2019-03-21T06:42:55.913Z,20.60
2019-03-21T06:45:25.712Z,20.17
2019-03-21T06:47:55.181Z,20.80
2019-03-21T06:50:24.723Z,20.40
2019-03-21T06:52:54.118Z,22.15
2019-03-21T06:55:23.657Z,31.00
2019-03-21T06:57:53.154Z,19.95
2019-03-21T07:00:24.915Z,21.65
2019-03-21T07:02:53.987Z,20.25
2019-03-21T07:05:23.356Z,19.35
2019-03-21T07:07:52.867Z,20.90
2019-03-21T07:10:22.452Z,19.42
2019-03-21T07:12:51.993Z,20.52
2019-03-21T07:15:21.396Z,21.48
2019-03-21T07:17:50.654Z,44.18
2019-03-21T07:20:20.006Z,19.60
2019-03-21T07:22:49.351Z,20.55
2019-03-21T07:25:18.783Z,20.88
2019-03-21T07:27:48.126Z,19.82
2019-03-21T07:30:17.469Z,19.15
2019-03-21T07:32:46.922Z,20.75
2019-03-21T07:35:16.259Z,20.32
2019-03-21T07:37:45.680Z,19.95
2019-03-21T07:40:15.071Z,19.87
2019-03-21T07:42:44.510Z,21.10
2019-03-21T07:45:14.069Z,21.00
2019-03-21T07:47:43.677Z,110.28
2019-03-21T07:50:13.257Z,20.85
2019-03-21T07:52:42.720Z,21.45
2019-03-21T07:55:12.299Z,21.55
2019-03-21T07:57:41.665Z,19.40
2019-03-21T08:00:12.382Z,20.60
2019-03-21T08:02:41.900Z,20.12
2019-03-21T08:05:11.458Z,20.48
2019-03-21T08:07:40.815Z,19.67
2019-03-21T08:10:10.225Z,18.70
2019-03-21T08:12:39.621Z,18.57
2019-03-21T08:15:09.637Z,19.45
2019-03-21T08:17:39.296Z,18.90
2019-03-21T08:20:09.284Z,18.70
2019-03-21T08:22:38.674Z,18.52
2019-03-21T08:25:08.765Z,18.12
2019-03-21T08:27:38.184Z,17.95
2019-03-21T08:30:08.274Z,18.27
2019-03-21T08:32:37.549Z,18.32
2019-03-21T08:35:07.406Z,17.92
2019-03-21T08:37:36.790Z,16.97
2019-03-21T08:40:07.360Z,19.32
2019-03-21T08:42:36.711Z,17.92
2019-03-21T08:45:06.652Z,17.48
2019-03-21T08:47:37.097Z,15.78
2019-03-21T08:50:07.310Z,17.70
2019-03-21T08:52:36.686Z,18.45
2019-03-21T08:55:06.253Z,16.40
2019-03-21T08:57:35.581Z,17.60
2019-03-21T09:00:05.425Z,17.12
2019-03-21T09:02:37.959Z,16.12
2019-03-21T09:05:07.494Z,16.62
2019-03-21T09:07:37.094Z,15.58
2019-03-21T09:10:07.993Z,16.95
2019-03-21T09:12:37.653Z,16.87
2019-03-21T09:15:08.177Z,16.70
2019-03-21T09:17:37.628Z,15.85
2019-03-21T09:20:07.239Z,15.15
2019-03-21T09:22:36.757Z,14.63
2019-03-21T09:25:06.598Z,15.65
2019-03-21T09:27:36.179Z,15.38
2019-03-21T09:30:06.763Z,14.18
2019-03-21T09:32:36.248Z,14.70
2019-03-21T09:35:06.392Z,14.95
2019-03-21T09:37:35.745Z,14.63
2019-03-21T09:40:05.797Z,16.90
2019-03-21T09:42:35.158Z,15.15
2019-03-21T09:45:05.264Z,13.13
2019-03-21T09:47:34.629Z,14.20
2019-03-21T09:50:04.307Z,15.60
2019-03-21T09:52:36.999Z,14.68
2019-03-21T09:55:06.642Z,14.73
2019-03-21T09:57:36.144Z,13.80
2019-03-21T10:00:06.301Z,13.48
2019-03-21T10:02:35.700Z,13.93
2019-03-21T10:05:05.968Z,13.30
2019-03-21T10:07:35.334Z,14.15
2019-03-21T10:10:05.198Z,14.23
2019-03-21T10:12:34.635Z,13.95
2019-03-21T10:15:04.410Z,14.75
2019-03-21T10:17:33.878Z,14.23
2019-03-21T10:20:03.269Z,13.43
2019-03-21T10:22:32.676Z,14.87
2019-03-21T10:25:02.122Z,14.85
2019-03-21T10:27:31.597Z,14.73
2019-03-21T10:30:01.005Z,15.25
2019-03-21T10:32:30.407Z,15.08
2019-03-21T10:34:59.947Z,13.43
2019-03-21T10:37:29.398Z,13.10
2019-03-21T10:39:58.850Z,13.15
2019-03-21T10:42:28.222Z,13.68
2019-03-21T10:44:57.662Z,14.63
2019-03-21T10:47:27.117Z,13.15
2019-03-21T10:49:56.403Z,13.15
2019-03-21T10:52:25.900Z,13.05
2019-03-21T10:54:55.280Z,13.98
2019-03-21T10:57:24.664Z,13.38
2019-03-21T10:59:54.030Z,13.20
2019-03-21T11:02:23.392Z,12.65
2019-03-21T11:04:52.678Z,14.05
2019-03-21T11:07:20.250Z,14.40
2019-03-21T11:09:49.737Z,15.13
2019-03-21T11:12:19.418Z,13.60
2019-03-21T11:14:48.789Z,13.98
2019-03-21T11:17:18.438Z,13.58
2019-03-21T11:19:47.855Z,13.20
2019-03-21T11:22:17.231Z,14.55
2019-03-21T11:24:46.603Z,13.98
2019-03-21T11:27:16.004Z,13.75
2019-03-21T11:29:45.581Z,13.60
2019-03-21T11:32:15.021Z,13.22
2019-03-21T11:34:44.479Z,13.35
2019-03-21T11:37:13.885Z,12.68
2019-03-21T11:39:43.359Z,13.98
2019-03-21T11:42:12.732Z,12.80
2019-03-21T11:44:42.102Z,10.78
2019-03-21T11:47:11.574Z,12.30
2019-03-21T11:49:40.953Z,12.10
2019-03-21T11:52:18.134Z,12.37
2019-03-21T11:54:41.744Z,12.80
2019-03-21T11:57:11.122Z,13.10
2019-03-21T11:59:51.075Z,13.48
2019-03-21T12:02:11.651Z,12.13
2019-03-21T12:04:40.994Z,12.55
2019-03-21T12:07:10.390Z,11.15
2019-03-21T12:09:39.739Z,10.45
2019-03-21T12:12:09.076Z,11.05
2019-03-21T12:14:38.381Z,10.98
2019-03-21T12:17:07.660Z,11.65
2019-03-21T12:19:37.018Z,11.63
2019-03-21T12:22:06.311Z,10.72
2019-03-21T12:24:35.614Z,9.45
2019-03-21T12:27:05.047Z,10.93
2019-03-21T12:29:34.489Z,9.90
2019-03-21T12:32:03.810Z,10.78
2019-03-21T12:34:33.112Z,9.80
2019-03-21T12:37:02.462Z,10.85
2019-03-21T12:39:31.873Z,10.03
2019-03-21T12:42:01.150Z,9.65
2019-03-21T12:44:30.400Z,9.60
2019-03-21T12:46:59.729Z,9.40
2019-03-21T12:49:29.003Z,10.23
2019-03-21T12:51:58.446Z,11.10
2019-03-21T12:54:27.670Z,10.78
2019-03-21T12:56:57.034Z,11.25
2019-03-21T12:59:26.355Z,10.35
2019-03-21T13:01:55.584Z,10.28
2019-03-21T13:04:24.981Z,9.93
2019-03-21T13:06:54.274Z,8.73
2019-03-21T13:09:23.509Z,10.05
2019-03-21T13:11:52.788Z,9.85
2019-03-21T13:14:22.142Z,11.28
2019-03-21T13:16:51.475Z,10.68
2019-03-21T13:19:20.772Z,11.10
2019-03-21T13:21:50.217Z,12.00
2019-03-21T13:24:19.736Z,11.18
2019-03-21T13:26:49.100Z,11.65
2019-03-21T13:29:18.530Z,10.90
2019-03-21T13:31:47.790Z,10.00
2019-03-21T13:34:17.105Z,10.85
2019-03-21T13:36:46.360Z,11.55
2019-03-21T13:39:15.668Z,12.10
2019-03-21T13:41:44.931Z,12.80
2019-03-21T13:44:14.213Z,12.28
2019-03-21T13:46:43.539Z,13.48
2019-03-21T13:49:12.800Z,13.00
2019-03-21T13:51:42.030Z,13.38
2019-03-21T13:54:11.677Z,12.68
2019-03-21T13:56:40.927Z,12.10
2019-03-21T13:59:10.171Z,12.98
2019-03-21T14:01:39.430Z,12.45
2019-03-21T14:04:08.743Z,12.63
2019-03-21T14:06:37.969Z,14.80
2019-03-21T14:09:08.342Z,13.40
2019-03-21T14:11:37.605Z,14.73
2019-03-21T14:14:06.911Z,14.55
2019-03-21T14:16:36.178Z,14.65
2019-03-21T14:19:05.445Z,13.83
2019-03-21T14:21:34.733Z,12.75
2019-03-21T14:24:03.998Z,12.82
2019-03-21T14:26:33.324Z,12.95
2019-03-21T14:29:12.229Z,13.55
2019-03-21T14:31:33.510Z,13.85
2019-03-21T14:34:02.766Z,14.33
2019-03-21T14:36:32.065Z,15.80
2019-03-21T14:39:01.278Z,14.25
2019-03-21T14:41:30.530Z,13.25
2019-03-21T14:43:59.922Z,12.65
2019-03-21T14:46:29.212Z,13.83
2019-03-21T14:48:58.482Z,14.20
2019-03-21T14:51:27.727Z,13.85
2019-03-21T14:53:57.133Z,13.32
2019-03-21T14:56:26.407Z,14.25
2019-03-21T14:58:55.630Z,14.55
2019-03-21T15:01:24.973Z,12.95
2019-03-21T15:03:54.202Z,14.87
2019-03-21T15:06:23.529Z,13.40
2019-03-21T15:08:52.807Z,12.45
2019-03-21T15:11:22.135Z,13.18
2019-03-21T15:13:51.507Z,13.68
2019-03-21T15:16:20.865Z,13.88
2019-03-21T15:18:50.233Z,13.98
2019-03-21T15:21:19.601Z,14.68
2019-03-21T15:23:58.750Z,13.90
2019-03-21T15:26:19.925Z,14.10
2019-03-21T15:28:49.213Z,13.32
2019-03-21T15:31:18.431Z,13.85
2019-03-21T15:33:47.723Z,13.08
2019-03-21T15:36:16.971Z,12.00
2019-03-21T15:38:46.271Z,11.80
2019-03-21T15:41:15.807Z,12.07
2019-03-21T15:43:45.051Z,13.43
2019-03-21T15:46:14.453Z,13.13
2019-03-21T15:48:43.695Z,14.85
2019-03-21T15:51:13.130Z,14.15
2019-03-21T15:53:53.165Z,13.50
2019-03-21T15:56:13.331Z,14.35
2019-03-21T15:58:42.653Z,13.45
2019-03-21T16:01:12.048Z,14.20
2019-03-21T16:03:41.318Z,15.10
2019-03-21T16:06:10.604Z,13.43
2019-03-21T16:08:39.913Z,15.63
2019-03-21T16:11:09.218Z,15.20
2019-03-21T16:13:38.491Z,15.98
2019-03-21T16:16:07.740Z,15.68
2019-03-21T16:18:37.010Z,17.32
2019-03-21T16:21:06.355Z,16.50
2019-03-21T16:23:35.746Z,17.25
2019-03-21T16:26:05.187Z,16.77
2019-03-21T16:28:34.515Z,17.23
2019-03-21T16:31:03.865Z,16.40
2019-03-21T16:33:33.258Z,15.72
2019-03-21T16:36:02.525Z,16.12
2019-03-21T16:38:32.101Z,16.25
2019-03-21T16:41:01.396Z,16.55
2019-03-21T16:43:30.623Z,16.62
2019-03-21T16:45:59.956Z,15.83
2019-03-21T16:48:29.583Z,16.15
2019-03-21T16:50:58.882Z,16.20
2019-03-21T16:53:28.202Z,17.10
2019-03-21T16:55:57.505Z,16.15
2019-03-21T16:58:26.814Z,15.95
2019-03-21T17:00:56.119Z,45.63
2019-03-21T17:03:25.508Z,17.62
2019-03-21T17:05:54.750Z,16.50
2019-03-21T17:08:24.115Z,15.15
2019-03-21T17:10:53.531Z,32.23
2019-03-21T17:13:23.822Z,29.85
2019-03-21T17:15:53.199Z,30.02
2019-03-21T17:18:22.598Z,17.82
2019-03-21T17:20:51.926Z,17.05
2019-03-21T17:23:21.278Z,16.10
2019-03-21T17:25:50.651Z,17.27
2019-03-21T17:28:19.906Z,16.20
2019-03-21T17:30:49.151Z,16.37
2019-03-21T17:33:18.426Z,15.23
2019-03-21T17:35:47.805Z,16.48
2019-03-21T17:38:17.035Z,16.97
2019-03-21T17:40:46.437Z,16.55
2019-03-21T17:43:16.145Z,16.93
2019-03-21T17:45:45.570Z,17.37
2019-03-21T17:48:14.800Z,16.55
2019-03-21T17:50:44.125Z,15.65
2019-03-21T17:53:13.424Z,17.57
2019-03-21T17:55:42.710Z,16.77
2019-03-21T17:58:11.937Z,16.93
2019-03-21T18:00:41.325Z,18.82
2019-03-21T18:03:10.798Z,24.98
2019-03-21T18:05:40.085Z,17.73
2019-03-21T18:08:09.464Z,18.65
2019-03-21T18:10:38.968Z,16.93
2019-03-21T18:13:08.412Z,17.95
2019-03-21T18:15:37.802Z,17.17
2019-03-21T18:18:07.101Z,17.48
2019-03-21T18:20:36.371Z,17.20
2019-03-21T18:23:05.680Z,19.17
2019-03-21T18:25:35.356Z,19.42
2019-03-21T18:28:04.683Z,18.50
2019-03-21T18:30:33.960Z,18.75
2019-03-21T18:33:03.355Z,18.67
2019-03-21T18:35:32.601Z,19.87
2019-03-21T18:38:01.934Z,18.73
2019-03-21T18:40:31.207Z,18.02
2019-03-21T18:43:00.746Z,18.42
2019-03-21T18:45:30.068Z,19.67
2019-03-21T18:47:59.351Z,19.02
2019-03-21T18:50:28.580Z,19.48
2019-03-21T18:52:57.839Z,19.57
2019-03-21T18:55:27.165Z,19.52
2019-03-21T18:57:56.394Z,20.15
2019-03-21T19:00:25.990Z,19.42
2019-03-21T19:02:55.356Z,20.82
2019-03-21T19:05:24.641Z,20.55
2019-03-21T19:07:53.887Z,20.97
2019-03-21T19:10:23.227Z,24.40
2019-03-21T19:12:52.675Z,23.07
2019-03-21T19:15:21.939Z,33.38
2019-03-21T19:17:51.244Z,24.25
2019-03-21T19:20:20.508Z,22.85
2019-03-21T19:22:49.888Z,39.15
2019-03-21T19:25:19.731Z,24.70
2019-03-21T19:27:49.254Z,25.35
2019-03-21T19:30:18.736Z,36.05
2019-03-21T19:32:48.071Z,33.55
2019-03-21T19:35:17.488Z,31.68
2019-03-21T19:37:46.904Z,23.85
2019-03-21T19:40:16.279Z,23.70
2019-03-21T19:42:45.624Z,23.35
2019-03-21T19:45:16.383Z,22.62
2019-03-21T19:47:45.707Z,23.75
2019-03-21T19:50:15.127Z,23.73
2019-03-21T19:52:44.525Z,22.93
2019-03-21T19:55:13.902Z,23.27
2019-03-21T19:57:43.415Z,23.02
2019-03-21T20:00:15.077Z,22.02
2019-03-21T20:02:44.678Z,23.75
2019-03-21T20:05:14.070Z,25.37
2019-03-21T20:07:43.516Z,24.70
2019-03-21T20:10:12.822Z,24.95
2019-03-21T20:12:42.214Z,26.12
2019-03-21T20:15:11.851Z,25.52
2019-03-21T20:17:42.165Z,26.42
2019-03-21T20:20:12.505Z,26.52
2019-03-21T20:22:41.866Z,27.25
2019-03-21T20:25:11.437Z,27.07
2019-03-21T20:27:40.747Z,25.55
2019-03-21T20:30:11.696Z,74.20
2019-03-21T20:32:40.952Z,37.58
2019-03-21T20:35:10.468Z,42.43
2019-03-21T20:37:39.755Z,36.60
2019-03-21T20:40:10.844Z,47.35
2019-03-21T20:42:40.280Z,71.67
2019-03-21T20:45:10.870Z,37.85
2019-03-21T20:47:41.133Z,34.10
2019-03-21T20:50:10.527Z,32.60
2019-03-21T20:52:40.490Z,31.68
2019-03-21T20:55:09.875Z,29.10
2019-03-21T20:57:39.702Z,29.98
2019-03-21T21:00:10.714Z,33.90
2019-03-21T21:02:40.955Z,29.18
2019-03-21T21:05:10.254Z,29.72
2019-03-21T21:07:40.487Z,31.48
2019-03-21T21:10:09.890Z,31.80
2019-03-21T21:12:39.312Z,31.35
2019-03-21T21:15:08.842Z,30.90
2019-03-21T21:17:38.242Z,29.65
2019-03-21T21:20:08.406Z,30.12
2019-03-21T21:22:37.798Z,38.30
2019-03-21T21:25:07.465Z,51.85
2019-03-21T21:27:44.598Z,34.92
2019-03-21T21:30:08.786Z,50.20
2019-03-21T21:32:38.109Z,35.58
2019-03-21T21:35:08.451Z,32.75
2019-03-21T21:37:37.991Z,34.67
2019-03-21T21:40:08.498Z,33.88
2019-03-21T21:42:38.590Z,34.43
2019-03-21T21:45:08.247Z,32.78
2019-03-21T21:47:37.715Z,33.10
2019-03-21T21:50:08.109Z,34.00
2019-03-21T21:52:41.920Z,34.18
2019-03-21T21:55:08.422Z,33.92
2019-03-21T21:57:37.777Z,36.23
2019-03-21T22:00:09.047Z,34.85
2019-03-21T22:02:38.433Z,34.35
2019-03-21T22:05:07.741Z,36.58
2019-03-21T22:07:37.065Z,36.90
2019-03-21T22:10:06.836Z,38.50
2019-03-21T22:12:36.121Z,39.15
2019-03-21T22:15:06.711Z,39.33
2019-03-21T22:17:35.968Z,39.55
2019-03-21T22:20:06.260Z,40.15
2019-03-21T22:22:35.631Z,41.25
2019-03-21T22:25:05.582Z,42.90
2019-03-21T22:27:34.864Z,44.18
2019-03-21T22:30:04.511Z,44.35
2019-03-21T22:32:33.919Z,44.00
2019-03-21T22:35:03.214Z,43.48
2019-03-21T22:37:32.658Z,42.27
2019-03-21T22:40:01.930Z,45.88
2019-03-21T22:42:31.260Z,45.28
2019-03-21T22:45:00.527Z,43.92
2019-03-21T22:47:30.223Z,45.28
2019-03-21T22:49:59.488Z,47.05
2019-03-21T22:52:28.774Z,46.83
2019-03-21T22:54:58.089Z,46.10
2019-03-21T22:57:27.541Z,46.25
2019-03-21T22:59:56.954Z,47.80
2019-03-21T23:02:26.466Z,46.63
2019-03-21T23:04:55.775Z,45.78
2019-03-21T23:07:25.140Z,47.23
2019-03-21T23:09:54.462Z,48.90
2019-03-21T23:12:24.799Z,48.17
2019-03-21T23:14:54.126Z,51.25
2019-03-21T23:17:23.583Z,47.62
2019-03-21T23:19:52.991Z,50.17
2019-03-21T23:22:22.578Z,48.85
2019-03-21T23:24:51.872Z,49.98
2019-03-21T23:27:21.118Z,49.58
2019-03-21T23:29:50.363Z,49.88
2019-03-21T23:32:22.677Z,48.30
2019-03-21T23:34:51.964Z,49.50
2019-03-21T23:37:21.238Z,48.65
2019-03-21T23:39:50.553Z,52.20
2019-03-21T23:42:20.037Z,49.00
2019-03-21T23:44:49.326Z,49.93
2019-03-21T23:47:18.964Z,52.98
2019-03-21T23:49:48.311Z,50.70
2019-03-21T23:52:18.350Z,52.00
2019-03-21T23:54:49.021Z,52.55
2019-03-21T23:57:21.351Z,51.92
2019-03-21T23:59:52.413Z,52.88
